To NAV CANADA Home Page Login to a new session Search on AWWS site Disclaimer Vers la page française équivalente Tips FAQ What's new on the site To the Forecasts and Observations / NOTAM section To "File a Flight Plan" website Publications and other links Update of the User's profile FIC Telephone Numbers My Weather Data Folder Route Weather Data Regional Weather Data Local Weather Data To the Forecasts and Observations / NOTAM section
Request Generated 03/07/2021 at 23:43:03 UTC . Weather information available at that time is displayed.


Go to a specific product

Save this request - Inactive

METAR/TAF

OTTAWA/MACDONALD-CARTIER INTL/ON    

METAR CYOW 072300Z 26005KT 15SM SKC M09/M19 A3040 RMK SLP307=
METAR CYOW 072200Z 29009KT 15SM SKC M06/M17 A3038 RMK SLP299=
METAR CYOW 072100Z 26011KT 15SM SKC M07/M17 A3038 RMK SLP300=

TAF CYOW 072338Z 0800/0824 28005KT P6SM SKC
FM081500 VRB03KT P6SM BKN240
FM082100 15007KT P6SM BKN050 OVC100
RMK NXT FCST BY 080300Z=

OTTAWA/GATINEAU/QC    

METAR CYND 072300Z 25006KT 15SM SKC M10/M17 A3040 RMK SLP303=
METAR CYND 072200Z 25010KT 15SM SKC M06/M16 A3038 RMK SLP293=
METAR CYND 072100Z 24011G17KT 15SM SKC M05/M16 A3037 RMK SLP291=

TAF CYND 072338Z 0800/0802 25006KT P6SM SKC
RMK NXT FCST WILL BE ISSUED AT 081345Z=


GRAPHICAL FA CLOUDS & WEATHER FORECASTS
To the Product Selector
Graphical FA gfacn33      

GRAPHICAL FA ICING, TURBULENCE & FREEZING LEVEL FORECASTS
To the Product Selector
Graphical FA gfacn33      

Your time UTC time
Weather data provided by Environment Canada and NAV CANADA